Time;durP1;ratioP1;P1;durP2;ratioP2;P2;SDS_P1;SDS_P2;PMS_P1;PMS_P2;Temp;Humidity;BMP_temperature;BMP_pressure;BME280_temperature;BME280_humidity;BME280_pressure;Samples;Min_cycle;Max_cycle;Signal;HPM_P1;HPM_P2
2022/10/15 00:00:18;;;;;;;10.13;8.30;;;;;;;14.33;100.00;99792.81;5072404;28;20192;-62
2022/10/15 00:02:46;;;;;;;9.73;8.83;;;;;;;14.33;100.00;99787.47;5072595;28;20192;-62
2022/10/15 00:05:13;;;;;;;9.23;8.43;;;;;;;14.31;100.00;99788.72;5072085;28;20214;-62
2022/10/15 00:07:40;;;;;;;9.37;8.50;;;;;;;14.39;100.00;99797.31;5072312;28;20191;-62
2022/10/15 00:10:08;;;;;;;9.90;9.00;;;;;;;14.47;100.00;99786.38;5071746;28;20192;-63
2022/10/15 00:12:34;;;;;;;10.90;8.20;;;;;;;14.46;100.00;99790.06;5072490;28;20251;-62
2022/10/15 00:15:01;;;;;;;10.73;9.40;;;;;;;14.46;100.00;99790.06;5072019;28;20196;-62
2022/10/15 00:17:28;;;;;;;11.70;10.57;;;;;;;14.42;100.00;99788.88;5072195;28;20196;-63
2022/10/15 00:19:56;;;;;;;11.33;10.37;;;;;;;14.39;100.00;99791.97;5072281;28;20199;-62
2022/10/15 00:22:23;;;;;;;10.77;9.80;;;;;;;14.44;100.00;99784.13;5072076;28;20192;-62
2022/10/15 00:24:49;;;;;;;10.73;9.83;;;;;;;14.39;100.00;99780.47;5071821;28;20545;-62
2022/10/15 00:27:16;;;;;;;10.00;8.80;;;;;;;14.35;100.00;99782.75;5071680;28;20195;-62
2022/10/15 00:29:43;;;;;;;9.00;8.30;;;;;;;14.37;100.00;99777.16;5060613;28;20192;-62
2022/10/15 00:32:09;;;;;;;9.40;8.80;;;;;;;14.40;100.00;99779.41;5054912;28;20216;-62
2022/10/15 00:34:36;;;;;;;8.50;7.90;;;;;;;14.37;100.00;99778.00;5052126;28;20246;-62
2022/10/15 00:37:04;;;;;;;8.77;8.17;;;;;;;14.37;100.00;99775.31;5052181;28;20192;-63
2022/10/15 00:39:31;;;;;;;8.63;8.03;;;;;;;14.36;100.00;99776.38;5051768;28;20262;-62
2022/10/15 00:41:58;;;;;;;8.30;7.80;;;;;;;14.37;100.00;99775.31;5052208;28;20205;-62
2022/10/15 00:44:47;;;;;;;7.90;7.20;;;;;;;14.39;100.00;99770.59;5051710;28;20250;-62
2022/10/15 00:47:17;;;;;;;8.97;8.00;;;;;;;14.38;100.00;99763.59;5051666;28;20647;-63
2022/10/15 00:49:48;;;;;;;8.63;8.03;;;;;;;14.39;100.00;99767.09;5051778;28;20647;-62
2022/10/15 00:52:20;;;;;;;8.20;7.47;;;;;;;14.31;100.00;99773.53;5051990;28;20204;-62
2022/10/15 00:54:52;;;;;;;8.87;8.17;;;;;;;14.31;100.00;99762.84;5052283;28;20610;-62
2022/10/15 00:57:19;;;;;;;8.43;7.80;;;;;;;14.29;100.00;99764.88;5052688;28;20193;-62
2022/10/15 00:59:50;;;;;;;8.87;8.27;;;;;;;14.21;100.00;99764.31;5068886;28;20314;-62
2022/10/15 01:02:18;;;;;;;8.50;7.80;;;;;;;14.25;100.00;99758.31;5072069;28;20615;-62
2022/10/15 01:04:46;;;;;;;8.80;8.00;;;;;;;14.26;100.00;99754.59;5071837;28;20188;-62
2022/10/15 01:07:13;;;;;;;8.47;7.97;;;;;;;14.31;100.00;99762.84;5071800;28;20249;-62
2022/10/15 01:09:42;;;;;;;9.20;8.57;;;;;;;14.30;100.00;99765.72;5072080;28;20188;-63
2022/10/15 01:12:15;;;;;;;9.23;8.53;;;;;;;14.29;100.00;99761.41;5071416;28;20234;-62
2022/10/15 01:14:49;;;;;;;8.87;8.03;;;;;;;14.27;100.00;99766.97;5072402;28;20277;-62
2022/10/15 01:17:21;;;;;;;9.37;7.30;;;;;;;14.21;100.00;99761.66;5071572;28;20615;-62
2022/10/15 01:20:26;;;;;;;8.70;8.00;;;;;;;14.21;100.00;99762.44;5071440;28;20727;-63
2022/10/15 01:23:14;;;;;;;9.00;8.30;;;;;;;14.22;100.00;99753.41;5071838;28;20203;-63
2022/10/15 01:25:55;;;;;;;7.80;7.10;;;;;;;14.14;100.00;99750.94;5072166;28;20234;-63
2022/10/15 01:28:41;;;;;;;8.13;7.63;;;;;;;14.15;100.00;99757.94;5066139;28;20208;-62
2022/10/15 01:31:19;;;;;;;8.50;7.73;;;;;;;14.13;100.00;99754.66;5052111;28;20204;-62
2022/10/15 01:33:55;;;;;;;8.87;8.03;;;;;;;14.12;100.00;99758.34;5051802;28;20188;-62
2022/10/15 01:36:31;;;;;;;10.47;7.13;;;;;;;14.07;100.00;99755.50;5051253;28;20258;-62
2022/10/15 01:39:04;;;;;;;7.87;7.37;;;;;;;14.10;100.00;99759.59;5054144;28;20236;-62
2022/10/15 01:41:39;;;;;;;8.43;8.00;;;;;;;14.12;100.00;99758.34;5054902;28;20188;-61
2022/10/15 01:44:12;;;;;;;7.83;7.30;;;;;;;14.14;100.00;99761.63;5054718;28;20714;-62
2022/10/15 01:46:45;;;;;;;8.57;7.60;;;;;;;14.08;100.00;99754.47;5054825;28;20181;-62
2022/10/15 01:49:15;;;;;;;7.47;6.97;;;;;;;14.10;100.00;99760.41;5055072;28;20189;-61
2022/10/15 01:51:44;;;;;;;7.73;7.23;;;;;;;14.08;100.00;99757.13;5054853;28;20217;-61
2022/10/15 01:54:16;;;;;;;6.90;6.40;;;;;;;14.13;100.00;99759.97;5054500;28;20200;-62
2022/10/15 01:56:48;;;;;;;7.50;6.83;;;;;;;14.10;100.00;99768.41;5054577;28;20570;-62
2022/10/15 01:59:17;;;;;;;7.80;7.30;;;;;;;14.04;100.00;99761.25;5067625;28;20183;-62
2022/10/15 02:01:46;;;;;;;8.00;7.40;;;;;;;14.02;100.00;99751.81;5074461;28;20231;-62
2022/10/15 02:04:21;;;;;;;8.73;7.20;;;;;;;14.07;100.00;99760.84;5074313;28;20203;-62
2022/10/15 02:06:53;;;;;;;7.73;7.10;;;;;;;14.06;100.00;99756.53;5074346;28;20199;-63
2022/10/15 02:09:29;;;;;;;7.87;7.17;;;;;;;14.04;100.00;99761.25;5074851;28;20209;-62
2022/10/15 02:12:06;;;;;;;7.23;6.63;;;;;;;14.02;100.00;99758.00;5074662;28;20238;-62
2022/10/15 02:14:38;;;;;;;7.20;6.80;;;;;;;14.01;100.00;99764.34;5074244;28;20184;-62
2022/10/15 02:17:09;;;;;;;8.37;7.63;;;;;;;14.08;100.00;99762.47;5075367;28;20189;-63
2022/10/15 02:19:43;;;;;;;7.97;7.33;;;;;;;14.15;100.00;99763.28;5074581;28;20562;-62
2022/10/15 02:22:14;;;;;;;8.47;7.70;;;;;;;14.17;100.00;99765.75;5075025;28;20191;-62
2022/10/15 02:24:46;;;;;;;7.93;7.23;;;;;;;14.15;100.00;99757.94;5074032;28;20616;-62
2022/10/15 02:27:16;;;;;;;8.73;7.93;;;;;;;14.15;100.00;99757.94;5075219;28;20260;-62
2022/10/15 02:29:46;;;;;;;7.27;6.87;;;;;;;14.18;100.00;99756.69;5073861;28;20691;-62
2022/10/15 02:32:16;;;;;;;12.47;7.37;;;;;;;14.18;100.00;99768.19;5073868;28;20223;-63
2022/10/15 02:34:46;;;;;;;8.37;7.50;;;;;;;14.26;100.00;99764.50;5074068;28;20196;-63
2022/10/15 02:37:14;;;;;;;7.83;7.10;;;;;;;14.22;100.00;99758.75;5074366;28;20253;-62
2022/10/15 02:39:40;;;;;;;7.43;6.93;;;;;;;14.22;100.00;99769.44;5073739;28;20235;-63
2022/10/15 02:42:07;;;;;;;8.73;7.50;;;;;;;14.19;100.00;99764.50;5074051;28;20200;-62
2022/10/15 02:44:34;;;;;;;7.90;7.20;;;;;;;14.16;100.00;99767.59;5073603;28;20697;-63
2022/10/15 02:47:01;;;;;;;7.80;7.30;;;;;;;14.11;100.00;99762.06;5074238;28;20192;-62
2022/10/15 02:49:29;;;;;;;7.47;6.83;;;;;;;14.13;100.00;99759.97;5073525;28;20196;-62
2022/10/15 02:51:56;;;;;;;7.13;6.53;;;;;;;14.11;100.00;99759.38;5073467;28;20665;-63
2022/10/15 02:54:23;;;;;;;6.93;6.53;;;;;;;14.15;100.00;99762.44;5073295;28;20637;-63
2022/10/15 02:56:50;;;;;;;7.53;6.93;;;;;;;14.17;100.00;99763.06;5073692;28;20195;-62
2022/10/15 02:59:17;;;;;;;6.83;6.37;;;;;;;14.15;100.00;99768.63;5073567;28;20200;-62
2022/10/15 03:01:44;;;;;;;6.83;6.33;;;;;;;14.12;100.00;99763.69;5073708;28;20203;-63
2022/10/15 03:04:10;;;;;;;8.80;6.43;;;;;;;14.10;100.00;99759.59;5073583;28;20550;-63
2022/10/15 03:06:38;;;;;;;7.33;6.50;;;;;;;14.13;100.00;99765.34;5073580;28;20261;-63
2022/10/15 03:09:05;;;;;;;7.60;7.07;;;;;;;14.11;100.00;99759.38;5073476;28;20556;-63
2022/10/15 03:11:32;;;;;;;6.57;6.17;;;;;;;14.20;100.00;99765.28;5073401;28;20235;-63
2022/10/15 03:13:59;;;;;;;7.33;6.70;;;;;;;14.22;100.00;99764.09;5072915;28;20659;-63
2022/10/15 03:16:26;;;;;;;7.70;7.20;;;;;;;14.25;100.00;99765.53;5073034;28;20196;-63
2022/10/15 03:18:52;;;;;;;7.60;7.10;;;;;;;14.15;100.00;99767.78;5073573;28;20192;-63
2022/10/15 03:21:19;;;;;;;8.60;7.80;;;;;;;14.07;100.00;99771.53;5073253;28;20200;-62
2022/10/15 03:23:47;;;;;;;8.27;7.43;;;;;;;14.03;100.00;99775.66;5073079;28;20196;-63
2022/10/15 03:26:14;;;;;;;8.87;8.00;;;;;;;14.05;100.00;99773.56;5073575;28;20200;-63
2022/10/15 03:28:40;;;;;;;8.63;8.00;;;;;;;13.97;100.00;99776.47;5064860;28;20668;-62
2022/10/15 03:31:07;;;;;;;8.10;7.43;;;;;;;13.98;100.00;99762.13;5053210;28;20192;-63
2022/10/15 03:33:34;;;;;;;8.20;7.50;;;;;;;13.98;100.00;99775.47;5052891;28;20208;-63
2022/10/15 03:36:00;;;;;;;8.40;7.60;;;;;;;14.01;100.00;99772.38;5053205;28;20192;-63
2022/10/15 03:38:27;;;;;;;7.70;7.13;;;;;;;14.04;100.00;99771.94;5052569;28;20189;-62
2022/10/15 03:40:55;;;;;;;8.13;7.40;;;;;;;14.03;100.00;99775.66;5052482;28;20559;-62
2022/10/15 03:43:25;;;;;;;7.43;6.93;;;;;;;14.02;100.00;99763.34;5053058;28;20189;-62
2022/10/15 03:45:52;;;;;;;7.70;7.07;;;;;;;14.07;100.00;99770.69;5052738;28;20196;-62
2022/10/15 03:48:19;;;;;;;7.67;6.73;;;;;;;14.05;100.00;99776.25;5052455;28;20197;-62
2022/10/15 03:50:46;;;;;;;8.50;7.90;;;;;;;14.05;100.00;99767.44;5052640;28;20275;-62
2022/10/15 03:53:13;;;;;;;7.47;7.03;;;;;;;14.04;100.00;99771.94;5066217;28;20273;-62
2022/10/15 03:55:40;;;;;;;8.23;7.70;;;;;;;14.05;100.00;99778.13;5072543;28;20192;-62
2022/10/15 03:58:08;;;;;;;7.10;6.50;;;;;;;14.01;100.00;99767.03;5072756;28;20184;-62
2022/10/15 04:00:34;;;;;;;8.50;7.77;;;;;;;13.92;100.00;99773.63;5072344;28;20192;-65
2022/10/15 04:03:01;;;;;;;10.17;8.73;;;;;;;13.92;100.00;99775.47;5071408;28;20196;-61
2022/10/15 04:05:28;;;;;;;9.43;8.67;;;;;;;13.92;100.00;99767.47;5072680;28;20196;-61
2022/10/15 04:07:56;;;;;;;9.13;8.43;;;;;;;13.96;100.00;99774.84;5072066;28;20245;-62
2022/10/15 04:10:23;;;;;;;9.40;8.50;;;;;;;13.99;100.00;99770.94;5072390;28;20308;-61
2022/10/15 04:12:49;;;;;;;8.20;7.60;;;;;;;14.02;100.00;99773.19;5073240;28;20268;-61
2022/10/15 04:15:18;;;;;;;8.37;7.63;;;;;;;13.99;100.00;99779.78;5071953;28;20241;-62
2022/10/15 04:17:44;;;;;;;8.13;7.53;;;;;;;14.00;100.00;99775.25;5072060;28;20196;-62
2022/10/15 04:20:11;;;;;;;8.30;7.70;;;;;;;13.99;100.00;99774.44;5072598;28;20620;-61
2022/10/15 04:22:38;;;;;;;7.70;7.20;;;;;;;14.02;100.00;99779.38;5072136;28;20272;-62
2022/10/15 04:25:06;;;;;;;8.27;7.57;;;;;;;14.01;100.00;99771.56;5071742;28;20192;-62
2022/10/15 04:27:33;;;;;;;8.10;7.50;;;;;;;13.98;100.00;99778.16;5071142;28;20192;-61
2022/10/15 04:29:59;;;;;;;8.87;7.97;;;;;;;13.97;100.00;99776.47;5053356;28;20196;-61
2022/10/15 04:32:27;;;;;;;8.17;7.40;;;;;;;13.91;100.00;99772.00;5051489;28;20225;-61
2022/10/15 04:34:54;;;;;;;7.80;7.10;;;;;;;13.88;100.00;99772.41;5051932;28;20262;-61
2022/10/15 04:37:21;;;;;;;7.47;6.87;;;;;;;13.90;100.00;99767.69;5051776;28;20242;-62
2022/10/15 04:39:47;;;;;;;8.13;7.37;;;;;;;13.88;100.00;99772.41;5050755;28;20203;-62
2022/10/15 04:42:14;;;;;;;7.80;7.23;;;;;;;13.91;100.00;99776.50;5052034;28;20201;-64
2022/10/15 04:44:41;;;;;;;8.60;7.60;;;;;;;13.92;100.00;99772.81;5051619;28;20193;-64
2022/10/15 04:47:08;;;;;;;12.57;11.40;;;;;;;13.99;100.00;99782.44;5052282;28;20196;-65
2022/10/15 04:49:36;;;;;;;11.50;8.50;;;;;;;13.96;100.00;99782.88;5051513;28;20215;-66
2022/10/15 04:52:03;;;;;;;8.10;7.47;;;;;;;13.94;100.00;99779.59;5051499;28;20229;-67
2022/10/15 04:54:29;;;;;;;9.43;8.10;;;;;;;14.03;100.00;99786.34;5052620;28;20192;-66
2022/10/15 04:56:56;;;;;;;9.30;8.60;;;;;;;14.33;100.00;99778.63;5051502;28;20251;-65
2022/10/15 04:59:23;;;;;;;9.00;8.30;;;;;;;14.35;100.00;99782.75;5065429;28;20246;-66
2022/10/15 05:01:49;;;;;;;7.97;7.27;;;;;;;14.32;100.00;99780.50;5071779;28;20222;-66
2022/10/15 05:04:16;;;;;;;11.77;7.73;;;;;;;14.31;100.00;99784.22;5071591;28;20196;-66
2022/10/15 05:06:44;;;;;;;8.70;7.37;;;;;;;14.29;100.00;99785.47;5071841;28;20200;-66
2022/10/15 05:09:11;;;;;;;8.17;7.37;;;;;;;14.26;100.00;99786.66;5071429;28;20659;-65
2022/10/15 05:11:38;;;;;;;8.83;7.97;;;;;;;14.27;100.00;99784.84;5071776;28;20691;-65
2022/10/15 05:14:05;;;;;;;8.57;7.73;;;;;;;14.26;100.00;99770.63;5074499;28;20196;-65
2022/10/15 05:16:32;;;;;;;8.90;8.13;;;;;;;14.41;100.00;99789.91;5075227;28;20725;-65
2022/10/15 05:19:01;;;;;;;10.97;7.70;;;;;;;14.49;100.00;99800.34;5075250;28;20249;-65
2022/10/15 05:21:30;;;;;;;8.67;8.07;;;;;;;14.52;100.00;99791.91;5075060;28;20191;-65
2022/10/15 05:23:58;;;;;;;8.87;7.63;;;;;;;14.54;100.00;99803.19;5075420;28;20196;-65
2022/10/15 05:26:27;;;;;;;8.10;7.37;;;;;;;14.58;100.00;99803.59;5075373;28;20212;-65
2022/10/15 05:28:55;;;;;;;7.73;7.00;;;;;;;14.54;100.00;99808.53;5075293;28;20192;-65
2022/10/15 05:31:24;;;;;;;8.27;7.57;;;;;;;14.50;100.00;99809.19;5075150;28;20188;-64
2022/10/15 05:33:52;;;;;;;7.60;7.07;;;;;;;14.46;100.00;99808.78;5075107;28;20228;-65
2022/10/15 05:36:22;;;;;;;10.30;7.47;;;;;;;14.48;100.00;99811.25;5074808;28;20249;-64
2022/10/15 05:38:50;;;;;;;7.67;6.93;;;;;;;14.47;100.00;99806.94;5074703;28;20203;-64
2022/10/15 05:41:19;;;;;;;7.73;6.93;;;;;;;14.49;99.88;99807.53;5074985;28;20259;-65
2022/10/15 05:43:47;;;;;;;7.73;6.70;;;;;;;14.53;99.75;99809.56;5073872;28;20733;-65
2022/10/15 05:46:14;;;;;;;9.00;6.83;;;;;;;14.53;99.38;99814.94;5072065;28;20327;-66
2022/10/15 05:48:40;;;;;;;8.27;7.47;;;;;;;14.54;99.29;99821.91;5074316;28;20325;-65
2022/10/15 05:51:11;;;;;;;7.87;7.17;;;;;;;14.55;99.21;99828.88;5073326;28;20667;-65
2022/10/15 05:53:39;;;;;;;7.97;7.33;;;;;;;14.63;99.55;99825.97;5070794;28;20212;-67
2022/10/15 05:56:06;;;;;;;9.60;7.60;;;;;;;14.65;99.55;99829.25;5072059;28;20203;-66
2022/10/15 05:58:35;;;;;;;10.77;7.40;;;;;;;14.68;99.53;99818.16;5067122;28;20188;-66
2022/10/15 06:01:04;;;;;;;11.90;7.33;;;;;;;14.79;99.94;99836.16;5075081;28;20188;-68
2022/10/15 06:03:31;;;;;;;7.40;6.50;;;;;;;14.96;99.88;99837.28;5074802;28;20273;-66
2022/10/15 06:05:58;;;;;;;11.67;6.73;;;;;;;15.16;98.56;99837.97;5074349;28;20207;-66
2022/10/15 06:08:25;;;;;;;8.70;6.80;;;;;;;15.27;96.79;99833.78;5075158;28;20276;-66
2022/10/15 06:10:52;;;;;;;10.23;6.53;;;;;;;15.40;95.76;99834.53;5074222;28;20308;-65
2022/10/15 06:13:18;;;;;;;7.33;6.57;;;;;;;15.57;94.68;99835.63;5074456;28;20223;-65
2022/10/15 06:15:46;;;;;;;7.13;6.63;;;;;;;15.70;93.78;99835.53;5074503;28;20208;-66
2022/10/15 06:18:15;;;;;;;9.13;6.10;;;;;;;15.84;93.05;99847.72;5074199;28;20731;-65
2022/10/15 06:20:42;;;;;;;7.00;6.37;;;;;;;15.86;91.60;99845.63;5074377;28;20200;-65
2022/10/15 06:23:10;;;;;;;8.10;7.37;;;;;;;16.01;92.30;99852.53;5074402;28;20204;-64
2022/10/15 06:25:37;;;;;;;7.83;7.10;;;;;;;15.93;90.19;99849.09;5073155;28;20188;-65
2022/10/15 06:28:05;;;;;;;7.70;6.93;;;;;;;15.94;90.67;99850.72;5071267;28;20636;-63
2022/10/15 06:30:32;;;;;;;8.93;6.27;;;;;;;15.97;90.63;99852.16;5054000;28;20193;-65
2022/10/15 06:33:00;;;;;;;8.67;7.00;;;;;;;16.06;90.07;99858.03;5053715;28;20289;-64
2022/10/15 06:35:29;;;;;;;8.80;6.03;;;;;;;16.06;89.31;99863.38;5054286;28;20611;-64
2022/10/15 06:37:56;;;;;;;10.43;6.30;;;;;;;15.81;89.44;99826.75;5053716;28;20201;-64
2022/10/15 06:40:22;;;;;;;8.20;6.37;;;;;;;16.02;89.50;99858.47;5054084;28;20193;-64
2022/10/15 06:42:49;;;;;;;6.97;6.40;;;;;;;16.02;89.55;99861.13;5054024;28;20196;-64
2022/10/15 06:45:16;;;;;;;10.93;6.23;;;;;;;16.02;90.06;99867.53;5053662;28;20192;-65
2022/10/15 06:47:43;;;;;;;7.13;6.23;;;;;;;16.03;89.68;99861.97;5053898;28;20254;-64
2022/10/15 06:50:11;;;;;;;7.37;6.77;;;;;;;15.93;89.83;99865.16;5054324;28;20197;-65
2022/10/15 06:52:38;;;;;;;6.27;5.67;;;;;;;16.06;89.62;99871.44;5053342;28;20707;-64
2022/10/15 06:55:06;;;;;;;12.33;6.63;;;;;;;16.17;89.08;99874.19;5053746;28;20250;-64
2022/10/15 06:57:32;;;;;;;7.00;5.33;;;;;;;16.11;88.20;99869.72;5052944;28;20196;-64
2022/10/15 06:59:59;;;;;;;7.47;5.87;;;;;;;16.12;88.09;99867.88;5072465;28;20215;-64
2022/10/15 07:02:26;;;;;;;7.97;5.70;;;;;;;16.14;88.56;99879.19;5073196;28;20624;-64
2022/10/15 07:04:52;;;;;;;5.53;5.07;;;;;;;16.32;87.63;99871.13;5073299;28;20196;-64
2022/10/15 07:07:21;;;;;;;8.53;5.13;;;;;;;16.44;86.94;99880.09;5073596;28;20195;-65
2022/10/15 07:09:51;;;;;;;13.17;5.90;;;;;;;16.49;86.75;99877.59;5073439;28;20196;-64
2022/10/15 07:12:20;;;;;;;6.13;5.53;;;;;;;16.56;86.51;99867.56;5073677;28;20643;-64
2022/10/15 07:14:47;;;;;;;4.90;4.50;;;;;;;16.81;86.16;99871.78;5073038;28;20203;-65
2022/10/15 07:17:14;;;;;;;5.83;4.40;;;;;;;17.03;84.28;99869.44;5072963;28;20268;-65
2022/10/15 07:19:41;;;;;;;4.70;4.20;;;;;;;17.21;82.73;99877.41;5072995;28;20196;-65
2022/10/15 07:22:08;;;;;;;5.73;4.63;;;;;;;17.39;82.38;99880.06;5073149;28;20199;-65
2022/10/15 07:24:36;;;;;;;5.10;4.70;;;;;;;17.59;81.97;99875.19;5072722;28;20631;-66
2022/10/15 07:27:03;;;;;;;4.67;4.27;;;;;;;17.56;81.06;99879.16;5072718;28;20225;-66
2022/10/15 07:29:30;;;;;;;5.83;4.00;;;;;;;17.80;78.75;99877.34;5073030;28;20249;-65
2022/10/15 07:31:57;;;;;;;4.73;4.40;;;;;;;17.83;78.33;99876.84;5072667;28;20295;-66
2022/10/15 07:34:24;;;;;;;5.60;3.93;;;;;;;17.88;77.70;99883.16;5072900;28;20281;-66
2022/10/15 07:36:50;;;;;;;5.53;3.93;;;;;;;18.05;78.01;99881.41;5072107;28;20200;-67
2022/10/15 07:39:18;;;;;;;4.70;4.23;;;;;;;18.19;77.33;99879.28;5072520;28;20191;-67
2022/10/15 07:41:46;;;;;;;4.63;3.90;;;;;;;18.31;76.88;99889.00;5072784;28;20195;-68
2022/10/15 07:44:13;;;;;;;3.80;3.40;;;;;;;18.69;77.18;99883.91;5072854;28;20199;-69
2022/10/15 07:46:39;;;;;;;6.50;3.80;;;;;;;19.01;74.46;99885.09;5072261;28;20632;-69
2022/10/15 07:49:06;;;;;;;6.17;3.40;;;;;;;19.65;75.16;99889.22;5071548;28;20200;-68
2022/10/15 07:51:33;;;;;;;6.93;3.50;;;;;;;20.26;70.52;99887.19;5071133;28;20251;-68
2022/10/15 07:54:00;;;;;;;10.23;3.67;;;;;;;20.30;67.29;99898.31;5071490;28;20719;-68
2022/10/15 07:56:26;;;;;;;5.77;3.40;;;;;;;20.59;66.69;99897.91;5071688;28;20199;-68
2022/10/15 07:58:54;;;;;;;4.77;3.63;;;;;;;20.86;66.44;99900.66;5071807;28;20192;-68
2022/10/15 08:01:21;;;;;;;3.97;2.90;;;;;;;21.21;65.88;99895.69;5071965;28;20246;-68
2022/10/15 08:03:48;;;;;;;6.53;3.17;;;;;;;21.66;64.81;99898.81;5071992;28;20192;-68
2022/10/15 08:06:15;;;;;;;7.13;3.33;;;;;;;21.87;62.37;99906.03;5072504;28;20192;-68
2022/10/15 08:08:42;;;;;;;4.23;3.17;;;;;;;22.11;62.22;99899.19;5072374;28;20628;-67
2022/10/15 08:11:11;;;;;;;5.30;3.03;;;;;;;22.62;60.08;99905.72;5072144;28;20223;-67
2022/10/15 08:13:40;;;;;;;3.57;2.87;;;;;;;23.10;56.51;99910.75;5072238;28;20219;-66
2022/10/15 08:16:09;;;;;;;7.60;3.20;;;;;;;23.51;56.76;99907.88;5072071;28;20287;-66
2022/10/15 08:18:36;;;;;;;3.87;3.47;;;;;;;23.84;53.93;99917.38;5072227;28;20196;-67
2022/10/15 08:21:04;;;;;;;6.33;3.17;;;;;;;23.61;54.62;99907.88;5072016;28;20189;-66
2022/10/15 08:23:31;;;;;;;4.37;3.00;;;;;;;23.65;55.79;99900.84;5072513;28;20234;-67
2022/10/15 08:25:59;;;;;;;4.83;3.03;;;;;;;23.53;53.58;99905.72;5072745;28;20196;-67
2022/10/15 08:28:26;;;;;;;3.53;3.23;;;;;;;23.09;54.90;99899.13;5066582;28;20223;-67
2022/10/15 08:30:53;;;;;;;3.20;2.90;;;;;;;22.48;56.42;99896.44;5052996;28;20200;-68
2022/10/15 08:33:21;;;;;;;3.00;2.80;;;;;;;21.88;55.59;99891.41;5051651;28;20220;-68
2022/10/15 08:35:47;;;;;;;9.30;2.87;;;;;;;21.52;56.47;99884.06;5052380;28;20196;-68
2022/10/15 08:38:14;;;;;;;4.30;2.70;;;;;;;21.38;58.73;99880.16;5051683;28;20242;-68
2022/10/15 08:40:46;;;;;;;10.80;3.97;;;;;;;21.59;60.09;99881.13;5052058;28;20201;-68
2022/10/15 08:43:20;;;;;;;5.20;3.17;;;;;;;21.60;57.26;99894.41;5051421;28;20196;-68
2022/10/15 08:45:48;;;;;;;5.23;3.17;;;;;;;21.72;57.62;99891.59;5051713;28;20276;-67
2022/10/15 08:48:21;;;;;;;2.50;2.30;;;;;;;21.86;56.78;99893.59;5053051;28;20577;-67
2022/10/15 08:50:57;;;;;;;4.40;2.80;;;;;;;21.76;55.10;99898.09;5056370;28;20189;-67
2022/10/15 08:53:26;;;;;;;7.00;3.50;;;;;;;21.90;56.66;99904.69;5056259;28;20214;-67
2022/10/15 08:55:55;;;;;;;3.30;2.93;;;;;;;22.08;57.71;99906.97;5056148;28;20196;-67
2022/10/15 08:58:30;;;;;;;3.50;3.10;;;;;;;22.64;56.55;99900.84;5061053;28;20191;-67
2022/10/15 09:01:01;;;;;;;3.17;2.60;;;;;;;23.09;54.56;99920.81;5075762;28;20187;-69
2022/10/15 09:03:38;;;;;;;3.63;2.50;;;;;;;23.35;52.69;99925.22;5075822;28;20283;-67
2022/10/15 09:06:14;;;;;;;3.37;2.67;;;;;;;23.69;52.78;99926.34;5075829;28;20234;-67
2022/10/15 09:08:52;;;;;;;6.07;2.87;;;;;;;23.86;51.49;99929.63;5075608;28;20610;-68
2022/10/15 09:11:28;;;;;;;8.03;3.70;;;;;;;24.11;51.56;99924.22;5071462;28;20232;-59
2022/10/15 09:13:55;;;;;;;4.70;2.93;;;;;;;24.34;49.17;99918.16;5075161;28;20270;-59
2022/10/15 09:16:26;;;;;;;2.83;2.63;;;;;;;24.24;47.98;99929.06;5075754;28;20203;-58
2022/10/15 09:18:54;;;;;;;3.00;2.70;;;;;;;23.83;48.16;99938.28;5074460;28;20645;-60
2022/10/15 09:21:24;;;;;;;3.90;2.93;;;;;;;24.01;49.83;99929.63;5073947;28;20201;-58
2022/10/15 09:23:52;;;;;;;6.83;2.87;;;;;;;24.41;49.88;99924.13;5074127;28;20274;-58
2022/10/15 09:26:28;;;;;;;4.77;3.00;;;;;;;24.72;45.68;99933.03;5073336;28;20188;-63
2022/10/15 09:29:03;;;;;;;3.90;2.70;;;;;;;24.63;49.02;99919.19;5073339;28;20193;-58
2022/10/15 09:31:39;;;;;;;6.73;3.30;;;;;;;24.84;47.20;99928.91;5072963;28;20186;-59
2022/10/15 09:34:14;;;;;;;3.43;2.77;;;;;;;24.80;45.07;99927.84;5070272;28;20268;-59
2022/10/15 09:36:49;;;;;;;4.47;3.30;;;;;;;24.40;45.96;99925.22;5068759;28;20290;-62
2022/10/15 09:39:36;;;;;;;6.80;2.93;;;;;;;24.39;48.18;99920.88;5071863;28;20244;-59
2022/10/15 09:42:13;;;;;;;6.30;3.43;;;;;;;24.51;48.10;99913.22;5072092;28;20194;-60
2022/10/15 09:44:43;;;;;;;5.80;3.10;;;;;;;24.56;45.39;99918.69;5071543;28;20191;-57
2022/10/15 09:47:22;;;;;;;4.77;2.93;;;;;;;24.56;49.19;99904.25;5075102;28;20195;-57
2022/10/15 09:49:49;;;;;;;3.63;3.33;;;;;;;24.44;45.34;99923.59;5075159;28;20186;-58
2022/10/15 09:52:25;;;;;;;3.23;3.03;;;;;;;24.20;45.57;99906.25;5074649;28;20655;-58
2022/10/15 09:55:02;;;;;;;9.10;3.50;;;;;;;24.27;47.53;99906.81;5074896;28;20310;-58
2022/10/15 09:57:33;;;;;;;4.47;2.60;;;;;;;24.26;46.75;99907.88;5074363;28;20248;-59
2022/10/15 10:00:02;;;;;;;7.40;3.30;;;;;;;24.26;46.02;99901.66;5072732;28;20201;-59
2022/10/15 10:02:29;;;;;;;3.47;3.17;;;;;;;24.47;47.55;99900.50;5074304;28;20198;-59
2022/10/15 10:04:56;;;;;;;3.33;2.60;;;;;;;24.54;44.09;99896.38;5074535;28;20266;-59
2022/10/15 10:07:33;;;;;;;2.70;2.50;;;;;;;24.46;46.31;99894.25;5074877;28;20267;-59
2022/10/15 10:10:04;;;;;;;3.13;2.73;;;;;;;24.57;43.75;99900.44;5074696;28;20190;-59
2022/10/15 10:12:35;;;;;;;3.10;2.80;;;;;;;24.72;43.90;99887.66;5074217;28;20654;-59
2022/10/15 10:15:06;;;;;;;3.00;2.30;;;;;;;25.14;42.32;99898.03;5072954;28;20221;-59
2022/10/15 10:17:32;;;;;;;2.80;2.50;;;;;;;25.29;40.97;99891.72;5075101;28;20188;-59
2022/10/15 10:20:15;;;;;;;3.10;2.43;;;;;;;25.86;42.58;99891.81;5074101;28;20188;-58
2022/10/15 10:22:46;;;;;;;5.07;2.70;;;;;;;25.66;37.48;99897.44;5073884;28;20602;-59
2022/10/15 10:25:38;;;;;;;2.93;2.73;;;;;;;25.63;39.31;99882.50;5074536;28;20211;-58
2022/10/15 10:28:16;;;;;;;2.53;2.40;;;;;;;25.52;38.31;99874.72;5056767;28;20208;-58
2022/10/15 10:30:59;;;;;;;2.80;2.60;;;;;;;25.77;39.16;99879.94;5053047;28;20250;-59
2022/10/15 10:33:29;;;;;;;3.50;3.13;;;;;;;25.44;39.33;99878.03;5053949;28;20276;-59
2022/10/15 10:35:58;;;;;;;4.40;2.77;;;;;;;25.49;40.64;99877.97;5054214;28;20196;-58
2022/10/15 10:38:29;;;;;;;2.73;2.53;;;;;;;25.68;40.20;99871.56;5053877;28;20189;-59
2022/10/15 10:40:58;;;;;;;2.50;2.23;;;;;;;25.54;39.14;99872.50;5053756;28;20604;-58
2022/10/15 10:43:26;;;;;;;3.17;2.53;;;;;;;25.39;39.86;99859.81;5054151;28;20196;-59
2022/10/15 10:45:58;;;;;;;4.97;4.37;;;;;;;25.25;39.88;99858.00;5053818;28;20195;-58
2022/10/15 10:48:27;;;;;;;3.47;3.17;;;;;;;25.06;40.50;99857.84;5054296;28;20209;-58
2022/10/15 10:51:07;;;;;;;3.53;3.23;;;;;;;24.68;41.42;99854.00;5053294;28;20197;-59
2022/10/15 10:53:44;;;;;;;3.13;2.83;;;;;;;24.32;42.19;99846.22;5053833;28;20192;-58
2022/10/15 10:56:12;;;;;;;3.00;2.80;;;;;;;24.13;42.24;99835.13;5053823;28;20187;-59
2022/10/15 10:58:39;;;;;;;14.07;3.90;;;;;;;24.15;42.62;99840.31;5061102;28;20282;-58
2022/10/15 11:01:06;;;;;;;4.27;2.83;;;;;;;24.18;43.93;99843.25;5073153;28;20685;-58
2022/10/15 11:03:35;;;;;;;4.43;3.10;;;;;;;24.23;43.19;99847.88;5073623;28;20193;-58
2022/10/15 11:06:22;;;;;;;2.97;2.87;;;;;;;24.24;43.04;99846.78;5073559;28;20289;-58
2022/10/15 11:09:02;;;;;;;4.00;2.90;;;;;;;24.17;42.67;99846.25;5073362;28;20619;-58
2022/10/15 11:11:36;;;;;;;3.67;3.30;;;;;;;24.15;41.51;99841.13;5072663;28;20286;-58
2022/10/15 11:14:16;;;;;;;3.73;3.37;;;;;;;23.70;42.10;99846.59;5074220;28;20221;-58
2022/10/15 11:16:49;;;;;;;4.93;2.73;;;;;;;23.46;42.38;99841.97;5073749;28;20185;-58
2022/10/15 11:19:28;;;;;;;4.53;2.80;;;;;;;23.24;42.85;99844.94;5072880;28;20555;-62
2022/10/15 11:22:13;;;;;;;2.83;2.63;;;;;;;22.98;43.85;99821.56;5073401;28;20247;-62
2022/10/15 11:24:46;;;;;;;4.03;2.50;;;;;;;23.02;44.66;99833.50;5073619;28;20719;-62
2022/10/15 11:27:35;;;;;;;3.33;3.10;;;;;;;22.92;45.16;99825.38;5073721;28;20258;-62
2022/10/15 11:30:10;;;;;;;5.87;3.37;;;;;;;22.82;45.57;99825.34;5072658;28;20640;-61
2022/10/15 11:32:48;;;;;;;3.80;3.33;;;;;;;22.76;46.19;99823.69;5073414;28;20325;-61
2022/10/15 11:35:27;;;;;;;5.13;4.53;;;;;;;22.78;46.34;99820.72;5073364;28;20207;-61
2022/10/15 11:38:06;;;;;;;3.43;3.23;;;;;;;22.51;46.72;99814.69;5072647;28;20668;-62
2022/10/15 11:40:48;;;;;;;4.73;3.10;;;;;;;22.20;47.11;99800.16;5072175;28;20245;-62